sensor_id;sensor_type;location;lat;lon;timestamp;pressure;altitude;pressure_sealevel;temperature;humidity
57248;BME280;55809;46.618;10.764;2023-03-21T00:01:13;93167.84;;;7.85;59.48
57248;BME280;55809;46.618;10.764;2023-03-21T00:03:42;93163.22;;;7.82;58.40
57248;BME280;55809;46.618;10.764;2023-03-21T00:06:12;93156.69;;;7.83;58.33
57248;BME280;55809;46.618;10.764;2023-03-21T00:08:41;93158.28;;;7.87;58.38
57248;BME280;55809;46.618;10.764;2023-03-21T00:11:12;93147.16;;;7.92;57.36
57248;BME280;55809;46.618;10.764;2023-03-21T00:13:40;93149.09;;;7.92;57.77
57248;BME280;55809;46.618;10.764;2023-03-21T00:16:10;93119.84;;;7.80;56.98
57248;BME280;55809;46.618;10.764;2023-03-21T00:18:41;93147.59;;;8.02;56.99
57248;BME280;55809;46.618;10.764;2023-03-21T00:21:14;93142.22;;;8.02;57.39
57248;BME280;55809;46.618;10.764;2023-03-21T00:23:42;93143.00;;;8.02;57.53
57248;BME280;55809;46.618;10.764;2023-03-21T00:26:13;93139.94;;;8.04;57.83
57248;BME280;55809;46.618;10.764;2023-03-21T00:28:42;93135.75;;;8.10;57.93
57248;BME280;55809;46.618;10.764;2023-03-21T00:31:10;93128.06;;;8.12;57.53
57248;BME280;55809;46.618;10.764;2023-03-21T00:33:38;93126.16;;;8.16;57.15
57248;BME280;55809;46.618;10.764;2023-03-21T00:36:07;93120.78;;;8.16;57.49
57248;BME280;55809;46.618;10.764;2023-03-21T00:38:37;93129.25;;;8.18;57.57
57248;BME280;55809;46.618;10.764;2023-03-21T00:41:09;93126.19;;;8.19;58.60
57248;BME280;55809;46.618;10.764;2023-03-21T00:43:38;93129.63;;;8.16;58.03
57248;BME280;55809;46.618;10.764;2023-03-21T00:46:07;93125.75;;;8.07;58.30
57248;BME280;55809;46.618;10.764;2023-03-21T00:48:36;93126.50;;;8.07;58.36
57248;BME280;55809;46.618;10.764;2023-03-21T00:51:11;93123.06;;;8.07;58.16
57248;BME280;55809;46.618;10.764;2023-03-21T00:53:42;93118.81;;;8.09;58.17
57248;BME280;55809;46.618;10.764;2023-03-21T00:56:12;93119.63;;;8.10;58.87
57248;BME280;55809;46.618;10.764;2023-03-21T00:58:41;93125.72;;;7.99;59.44
57248;BME280;55809;46.618;10.764;2023-03-21T01:01:10;93116.50;;;7.97;59.79
57248;BME280;55809;46.618;10.764;2023-03-21T01:03:38;93117.66;;;7.99;59.52
57248;BME280;55809;46.618;10.764;2023-03-21T01:06:18;93092.22;;;7.86;59.55
57248;BME280;55809;46.618;10.764;2023-03-21T01:08:48;93112.66;;;8.05;61.07
57248;BME280;55809;46.618;10.764;2023-03-21T01:11:22;93109.59;;;8.03;61.01
57248;BME280;55809;46.618;10.764;2023-03-21T01:13:50;93108.03;;;7.98;61.69
57248;BME280;55809;46.618;10.764;2023-03-21T01:16:19;93106.50;;;7.97;62.00
57248;BME280;55809;46.618;10.764;2023-03-21T01:18:49;93104.97;;;8.00;60.26
57248;BME280;55809;46.618;10.764;2023-03-21T01:21:18;93080.69;;;7.82;60.94
57248;BME280;55809;46.618;10.764;2023-03-21T01:23:45;93100.69;;;7.88;61.12
57248;BME280;55809;46.618;10.764;2023-03-21T01:26:14;93102.56;;;7.77;59.94
57248;BME280;55809;46.618;10.764;2023-03-21T01:28:42;93100.63;;;7.74;59.61
57248;BME280;55809;46.618;10.764;2023-03-21T01:31:15;93089.03;;;7.63;60.72
57248;BME280;55809;46.618;10.764;2023-03-21T01:33:43;93095.53;;;7.58;61.15
57248;BME280;55809;46.618;10.764;2023-03-21T01:36:14;93088.22;;;7.51;60.99
57248;BME280;55809;46.618;10.764;2023-03-21T01:38:43;93084.34;;;7.49;60.97
57248;BME280;55809;46.618;10.764;2023-03-21T01:41:19;93091.25;;;7.50;60.89
57248;BME280;55809;46.618;10.764;2023-03-21T01:43:50;93089.75;;;7.52;60.40
57248;BME280;55809;46.618;10.764;2023-03-21T01:46:38;93081.66;;;7.49;60.35
57248;BME280;55809;46.618;10.764;2023-03-21T01:49:09;93080.13;;;7.48;59.67
57248;BME280;55809;46.618;10.764;2023-03-21T01:51:41;93063.19;;;7.40;58.49
57248;BME280;55809;46.618;10.764;2023-03-21T01:54:13;93037.69;;;7.05;59.07
57248;BME280;55809;46.618;10.764;2023-03-21T01:56:43;93070.78;;;7.24;59.10
57248;BME280;55809;46.618;10.764;2023-03-21T01:59:15;93070.38;;;7.22;58.96
57248;BME280;55809;46.618;10.764;2023-03-21T02:01:49;93066.19;;;7.24;59.07
57248;BME280;55809;46.618;10.764;2023-03-21T02:04:18;93072.66;;;7.20;58.84
57248;BME280;55809;46.618;10.764;2023-03-21T02:06:57;93071.88;;;7.16;59.06
57248;BME280;55809;46.618;10.764;2023-03-21T02:09:31;93074.97;;;7.18;59.02
57248;BME280;55809;46.618;10.764;2023-03-21T02:12:03;93072.59;;;7.13;58.32
57248;BME280;55809;46.618;10.764;2023-03-21T02:14:33;93078.34;;;7.08;58.95
57248;BME280;55809;46.618;10.764;2023-03-21T02:17:17;93076.69;;;6.96;59.00
57248;BME280;55809;46.618;10.764;2023-03-21T02:23:28;93072.72;;;6.75;59.55
57248;BME280;55809;46.618;10.764;2023-03-21T02:26:53;93082.59;;;6.68;59.82
57248;BME280;55809;46.618;10.764;2023-03-21T02:32:32;93079.53;;;6.69;59.33
57248;BME280;55809;46.618;10.764;2023-03-21T02:35:27;93082.94;;;6.63;59.18
57248;BME280;55809;46.618;10.764;2023-03-21T02:38:07;93077.78;;;6.47;60.09
57248;BME280;55809;46.618;10.764;2023-03-21T02:40:41;93014.19;;;6.03;59.87
57248;BME280;55809;46.618;10.764;2023-03-21T02:43:16;93077.00;;;6.43;59.95
57248;BME280;55809;46.618;10.764;2023-03-21T02:45:53;93047.31;;;6.25;60.04
57248;BME280;55809;46.618;10.764;2023-03-21T02:48:31;93073.16;;;6.44;60.61
57248;BME280;55809;46.618;10.764;2023-03-21T02:51:04;93072.00;;;6.41;60.44
57248;BME280;55809;46.618;10.764;2023-03-21T02:53:36;93056.19;;;6.29;60.50
57248;BME280;55809;46.618;10.764;2023-03-21T02:56:08;93075.34;;;6.31;60.84
57248;BME280;55809;46.618;10.764;2023-03-21T02:58:39;93076.06;;;6.28;60.96
57248;BME280;55809;46.618;10.764;2023-03-21T03:01:09;93076.38;;;6.19;61.24
57248;BME280;55809;46.618;10.764;2023-03-21T03:03:39;93079.38;;;6.14;61.52
57248;BME280;55809;46.618;10.764;2023-03-21T03:06:15;93077.06;;;6.13;61.17
57248;BME280;55809;46.618;10.764;2023-03-21T03:09:03;93073.63;;;6.12;61.34
57248;BME280;55809;46.618;10.764;2023-03-21T03:11:35;93069.38;;;6.11;61.50
57248;BME280;55809;46.618;10.764;2023-03-21T03:14:21;93074.00;;;6.14;60.93
57248;BME280;55809;46.618;10.764;2023-03-21T03:17:04;93074.66;;;6.04;61.42
57248;BME280;55809;46.618;10.764;2023-03-21T03:19:44;93080.28;;;5.95;61.72
57248;BME280;55809;46.618;10.764;2023-03-21T03:22:20;93071.75;;;5.86;61.75
57248;BME280;55809;46.618;10.764;2023-03-21T03:24:57;93072.06;;;5.81;62.15
57248;BME280;55809;46.618;10.764;2023-03-21T03:27:29;93082.13;;;5.91;62.08
57248;BME280;55809;46.618;10.764;2023-03-21T03:30:00;93073.44;;;5.98;61.92
57248;BME280;55809;46.618;10.764;2023-03-21T03:32:34;93081.53;;;6.01;61.80
57248;BME280;55809;46.618;10.764;2023-03-21T03:35:06;93041.91;;;5.87;61.62
57248;BME280;55809;46.618;10.764;2023-03-21T03:37:34;93074.72;;;6.07;61.12
57248;BME280;55809;46.618;10.764;2023-03-21T03:40:07;93076.97;;;6.05;61.43
57248;BME280;55809;46.618;10.764;2023-03-21T03:42:40;93067.75;;;5.99;61.47
57248;BME280;55809;46.618;10.764;2023-03-21T03:45:10;93074.97;;;5.99;62.32
57248;BME280;55809;46.618;10.764;2023-03-21T03:47:43;93087.84;;;5.86;62.40
57248;BME280;55809;46.618;10.764;2023-03-21T03:50:21;93094.69;;;5.83;63.06
57248;BME280;55809;46.618;10.764;2023-03-21T03:52:56;93082.47;;;5.86;63.06
57248;BME280;55809;46.618;10.764;2023-03-21T03:55:27;93085.97;;;5.90;62.73
57248;BME280;55809;46.618;10.764;2023-03-21T03:58:00;93088.00;;;5.97;62.71
57248;BME280;55809;46.618;10.764;2023-03-21T04:00:31;93097.63;;;6.05;62.72
57248;BME280;55809;46.618;10.764;2023-03-21T04:03:00;93095.09;;;6.16;62.37
57248;BME280;55809;46.618;10.764;2023-03-21T04:05:28;93096.75;;;6.27;61.87
57248;BME280;55809;46.618;10.764;2023-03-21T04:07:57;93084.44;;;6.23;62.38
57248;BME280;55809;46.618;10.764;2023-03-21T04:10:26;93101.75;;;6.29;62.29
57248;BME280;55809;46.618;10.764;2023-03-21T04:12:55;93097.50;;;6.28;61.98
57248;BME280;55809;46.618;10.764;2023-03-21T04:15:23;93093.69;;;6.25;61.80
57248;BME280;55809;46.618;10.764;2023-03-21T04:17:54;93058.66;;;6.11;61.36
57248;BME280;55809;46.618;10.764;2023-03-21T04:20:23;93069.94;;;6.27;60.83
57248;BME280;55809;46.618;10.764;2023-03-21T04:22:51;93080.03;;;6.41;60.21
57248;BME280;55809;46.618;10.764;2023-03-21T04:25:19;93075.81;;;6.40;60.74
57248;BME280;55809;46.618;10.764;2023-03-21T04:27:48;93076.97;;;6.39;60.59
57248;BME280;55809;46.618;10.764;2023-03-21T04:30:17;93081.13;;;6.33;60.56
57248;BME280;55809;46.618;10.764;2023-03-21T04:32:44;93077.97;;;6.27;61.08
57248;BME280;55809;46.618;10.764;2023-03-21T04:35:19;93071.16;;;5.96;61.41
57248;BME280;55809;46.618;10.764;2023-03-21T04:37:47;93094.16;;;6.01;61.58
57248;BME280;55809;46.618;10.764;2023-03-21T04:40:17;93089.91;;;5.96;62.01
57248;BME280;55809;46.618;10.764;2023-03-21T04:43:00;93079.75;;;5.82;62.83
57248;BME280;55809;46.618;10.764;2023-03-21T04:45:28;93080.03;;;5.74;63.37
57248;BME280;55809;46.618;10.764;2023-03-21T04:47:55;93078.88;;;5.75;64.00
57248;BME280;55809;46.618;10.764;2023-03-21T04:50:24;93077.50;;;5.88;62.79
57248;BME280;55809;46.618;10.764;2023-03-21T04:52:54;93077.63;;;5.95;62.45
57248;BME280;55809;46.618;10.764;2023-03-21T04:55:22;93077.66;;;5.99;62.36
57248;BME280;55809;46.618;10.764;2023-03-21T04:57:55;93076.63;;;6.07;61.43
57248;BME280;55809;46.618;10.764;2023-03-21T05:00:23;93081.88;;;5.96;61.52
57248;BME280;55809;46.618;10.764;2023-03-21T05:02:52;93081.34;;;5.87;62.21
57248;BME280;55809;46.618;10.764;2023-03-21T05:05:20;93074.03;;;5.84;62.29
57248;BME280;55809;46.618;10.764;2023-03-21T05:07:50;93072.28;;;5.69;62.67
57248;BME280;55809;46.618;10.764;2023-03-21T05:10:19;93078.38;;;5.65;62.89
57248;BME280;55809;46.618;10.764;2023-03-21T05:12:46;93081.09;;;5.69;62.70
57248;BME280;55809;46.618;10.764;2023-03-21T05:15:16;93046.63;;;5.64;62.40
57248;BME280;55809;46.618;10.764;2023-03-21T05:17:44;93068.16;;;5.75;62.29
57248;BME280;55809;46.618;10.764;2023-03-21T05:20:14;93064.34;;;5.76;62.20
57248;BME280;55809;46.618;10.764;2023-03-21T05:22:42;93063.38;;;5.91;62.20
57248;BME280;55809;46.618;10.764;2023-03-21T05:25:11;93065.44;;;6.01;61.77
57248;BME280;55809;46.618;10.764;2023-03-21T05:27:38;93067.47;;;6.11;61.26
57248;BME280;55809;46.618;10.764;2023-03-21T05:30:13;93071.75;;;6.16;61.47
57248;BME280;55809;46.618;10.764;2023-03-21T05:32:44;93062.53;;;6.14;61.34
57248;BME280;55809;46.618;10.764;2023-03-21T05:35:13;93067.84;;;6.10;61.55
57248;BME280;55809;46.618;10.764;2023-03-21T05:37:40;93070.00;;;5.97;62.32
57248;BME280;55809;46.618;10.764;2023-03-21T05:40:09;93068.47;;;5.96;61.96
57248;BME280;55809;46.618;10.764;2023-03-21T05:42:45;93069.63;;;5.99;62.02
57248;BME280;55809;46.618;10.764;2023-03-21T05:45:14;93063.47;;;5.95;61.95
57248;BME280;55809;46.618;10.764;2023-03-21T05:47:45;93083.16;;;6.09;61.33
57248;BME280;55809;46.618;10.764;2023-03-21T05:50:12;93070.53;;;6.47;60.83
57248;BME280;55809;46.618;10.764;2023-03-21T05:52:40;93081.00;;;7.66;57.04
57248;BME280;55809;46.618;10.764;2023-03-21T05:55:11;93076.72;;;8.38;54.64
57248;BME280;55809;46.618;10.764;2023-03-21T05:57:42;93071.41;;;8.71;53.61
57248;BME280;55809;46.618;10.764;2023-03-21T06:00:14;93076.81;;;9.06;52.50
57248;BME280;55809;46.618;10.764;2023-03-21T06:02:42;93050.66;;;9.14;51.93
57248;BME280;55809;46.618;10.764;2023-03-21T06:05:16;93071.38;;;9.53;50.95
57248;BME280;55809;46.618;10.764;2023-03-21T06:07:44;93054.00;;;9.75;50.25
57248;BME280;55809;46.618;10.764;2023-03-21T06:10:14;93060.47;;;9.99;50.00
57248;BME280;55809;46.618;10.764;2023-03-21T06:12:41;93038.22;;;9.81;50.01
57248;BME280;55809;46.618;10.764;2023-03-21T06:15:10;93058.19;;;9.94;50.49
57248;BME280;55809;46.618;10.764;2023-03-21T06:17:37;93057.88;;;9.78;50.60
57248;BME280;55809;46.618;10.764;2023-03-21T06:20:06;93057.50;;;9.65;51.07
57248;BME280;55809;46.618;10.764;2023-03-21T06:22:35;93065.16;;;9.74;51.42
57248;BME280;55809;46.618;10.764;2023-03-21T06:25:05;93070.50;;;9.99;50.54
57248;BME280;55809;46.618;10.764;2023-03-21T06:27:34;93075.81;;;10.20;49.86
57248;BME280;55809;46.618;10.764;2023-03-21T06:30:03;93070.00;;;10.32;49.77
57248;BME280;55809;46.618;10.764;2023-03-21T06:32:31;93073.75;;;10.56;49.39
57248;BME280;55809;46.618;10.764;2023-03-21T06:34:59;93076.34;;;10.74;49.29
57248;BME280;55809;46.618;10.764;2023-03-21T06:37:27;93078.09;;;11.02;48.65
57248;BME280;55809;46.618;10.764;2023-03-21T06:39:55;93084.06;;;11.24;48.04
57248;BME280;55809;46.618;10.764;2023-03-21T06:42:22;93082.81;;;11.40;46.65
57248;BME280;55809;46.618;10.764;2023-03-21T06:44:51;93083.41;;;11.58;46.34
57248;BME280;55809;46.618;10.764;2023-03-21T06:47:19;93089.16;;;12.05;45.15
57248;BME280;55809;46.618;10.764;2023-03-21T06:49:47;93086.09;;;12.34;45.40
57248;BME280;55809;46.618;10.764;2023-03-21T06:52:15;93086.22;;;12.57;44.98
57248;BME280;55809;46.618;10.764;2023-03-21T06:54:43;93080.97;;;12.74;44.12
57248;BME280;55809;46.618;10.764;2023-03-21T06:57:12;93077.91;;;12.99;44.46
57248;BME280;55809;46.618;10.764;2023-03-21T06:59:41;93078.56;;;13.33;43.39
57248;BME280;55809;46.618;10.764;2023-03-21T07:02:09;93075.81;;;13.37;43.53
57248;BME280;55809;46.618;10.764;2023-03-21T07:04:37;93073.50;;;13.35;43.90
57248;BME280;55809;46.618;10.764;2023-03-21T07:07:05;93068.00;;;13.39;43.04
57248;BME280;55809;46.618;10.764;2023-03-21T07:09:34;93077.44;;;13.31;43.79
57248;BME280;55809;46.618;10.764;2023-03-21T07:12:02;93040.69;;;13.30;43.02
57248;BME280;55809;46.618;10.764;2023-03-21T07:14:31;93061.19;;;13.54;43.56
57248;BME280;55809;46.618;10.764;2023-03-21T07:17:00;93069.13;;;13.65;43.75
57248;BME280;55809;46.618;10.764;2023-03-21T07:19:27;93045.53;;;13.86;42.28
57248;BME280;55809;46.618;10.764;2023-03-21T07:21:55;93057.78;;;14.34;41.64
57248;BME280;55809;46.618;10.764;2023-03-21T07:24:23;93062.16;;;14.47;40.70
57248;BME280;55809;46.618;10.764;2023-03-21T07:26:52;93058.91;;;14.56;40.59
57248;BME280;55809;46.618;10.764;2023-03-21T07:29:22;93052.34;;;13.94;42.06
57248;BME280;55809;46.618;10.764;2023-03-21T07:31:52;93052.09;;;13.65;42.03
57248;BME280;55809;46.618;10.764;2023-03-21T07:34:20;93042.53;;;14.00;41.64
57248;BME280;55809;46.618;10.764;2023-03-21T07:36:49;93061.44;;;13.83;42.24
57248;BME280;55809;46.618;10.764;2023-03-21T07:39:19;93057.63;;;14.21;41.92
57248;BME280;55809;46.618;10.764;2023-03-21T07:41:49;93055.31;;;14.79;40.55
57248;BME280;55809;46.618;10.764;2023-03-21T07:44:17;93056.38;;;15.01;39.77
57248;BME280;55809;46.618;10.764;2023-03-21T07:46:45;93053.00;;;15.14;40.01
57248;BME280;55809;46.618;10.764;2023-03-21T07:49:19;93058.41;;;14.97;39.93
57248;BME280;55809;46.618;10.764;2023-03-21T07:51:48;93060.84;;;14.92;40.01
57248;BME280;55809;46.618;10.764;2023-03-21T07:54:16;93054.66;;;14.91;39.66
57248;BME280;55809;46.618;10.764;2023-03-21T07:56:48;93062.50;;;14.29;39.91
57248;BME280;55809;46.618;10.764;2023-03-21T07:59:16;93053.31;;;14.03;40.59
57248;BME280;55809;46.618;10.764;2023-03-21T08:01:46;93052.28;;;14.57;40.26
57248;BME280;55809;46.618;10.764;2023-03-21T08:04:18;93060.34;;;14.21;40.60
57248;BME280;55809;46.618;10.764;2023-03-21T08:06:44;93058.66;;;13.87;40.65
57248;BME280;55809;46.618;10.764;2023-03-21T08:09:13;93052.19;;;14.41;40.63
57248;BME280;55809;46.618;10.764;2023-03-21T08:11:40;93051.47;;;14.76;40.76
57248;BME280;55809;46.618;10.764;2023-03-21T08:14:08;93053.31;;;14.63;41.37
57248;BME280;55809;46.618;10.764;2023-03-21T08:16:36;93051.44;;;14.00;42.21
57248;BME280;55809;46.618;10.764;2023-03-21T08:19:03;93050.97;;;13.62;42.79
57248;BME280;55809;46.618;10.764;2023-03-21T08:21:32;93056.81;;;13.37;43.05
57248;BME280;55809;46.618;10.764;2023-03-21T08:24:04;93061.63;;;13.26;42.81
57248;BME280;55809;46.618;10.764;2023-03-21T08:26:34;93059.47;;;12.90;44.16
57248;BME280;55809;46.618;10.764;2023-03-21T08:29:02;93060.63;;;12.89;43.52
57248;BME280;55809;46.618;10.764;2023-03-21T08:31:30;93027.84;;;12.80;43.08
57248;BME280;55809;46.618;10.764;2023-03-21T08:33:58;93052.34;;;13.00;42.77
57248;BME280;55809;46.618;10.764;2023-03-21T08:36:27;93062.25;;;13.10;43.43
57248;BME280;55809;46.618;10.764;2023-03-21T08:38:56;93063.13;;;13.03;42.37
57248;BME280;55809;46.618;10.764;2023-03-21T08:41:31;93056.16;;;13.02;42.71
57248;BME280;55809;46.618;10.764;2023-03-21T08:43:59;93055.34;;;13.56;42.60
57248;BME280;55809;46.618;10.764;2023-03-21T08:46:28;93029.16;;;14.49;40.48
57248;BME280;55809;46.618;10.764;2023-03-21T08:48:55;93048.09;;;14.89;38.97
57248;BME280;55809;46.618;10.764;2023-03-21T08:51:23;93033.03;;;15.20;37.87
57248;BME280;55809;46.618;10.764;2023-03-21T08:53:51;93041.25;;;15.33;37.55
57248;BME280;55809;46.618;10.764;2023-03-21T08:56:24;93040.97;;;14.95;38.09
57248;BME280;55809;46.618;10.764;2023-03-21T08:58:52;93028.53;;;15.14;39.00
57248;BME280;55809;46.618;10.764;2023-03-21T09:01:20;93027.22;;;15.35;38.45
57248;BME280;55809;46.618;10.764;2023-03-21T09:03:51;93009.31;;;15.37;38.52
57248;BME280;55809;46.618;10.764;2023-03-21T09:06:18;93027.97;;;15.52;39.02
57248;BME280;55809;46.618;10.764;2023-03-21T09:08:46;93026.56;;;15.31;39.14
57248;BME280;55809;46.618;10.764;2023-03-21T09:11:18;92989.59;;;15.17;39.02
57248;BME280;55809;46.618;10.764;2023-03-21T09:13:50;93023.97;;;15.73;39.03
57248;BME280;55809;46.618;10.764;2023-03-21T09:16:18;93015.94;;;15.82;38.11
57248;BME280;55809;46.618;10.764;2023-03-21T09:18:46;93013.00;;;15.76;38.39
57248;BME280;55809;46.618;10.764;2023-03-21T09:21:22;93013.00;;;15.76;38.42
57248;BME280;55809;46.618;10.764;2023-03-21T09:23:52;93009.78;;;15.48;38.61
57248;BME280;55809;46.618;10.764;2023-03-21T09:26:22;93013.72;;;15.15;39.26
57248;BME280;55809;46.618;10.764;2023-03-21T09:28:53;93009.31;;;15.21;39.78
57248;BME280;55809;46.618;10.764;2023-03-21T09:31:22;93003.53;;;15.19;39.41
57248;BME280;55809;46.618;10.764;2023-03-21T09:33:51;92991.81;;;15.06;39.67
57248;BME280;55809;46.618;10.764;2023-03-21T09:36:23;93004.38;;;14.99;38.82
57248;BME280;55809;46.618;10.764;2023-03-21T09:38:54;92987.66;;;14.85;39.42
57248;BME280;55809;46.618;10.764;2023-03-21T09:41:49;93008.13;;;15.06;38.39
57248;BME280;55809;46.618;10.764;2023-03-21T09:44:47;93010.81;;;14.89;39.95
57248;BME280;55809;46.618;10.764;2023-03-21T09:47:21;93002.47;;;14.64;39.71
57248;BME280;55809;46.618;10.764;2023-03-21T09:49:54;92999.66;;;14.67;40.16
57248;BME280;55809;46.618;10.764;2023-03-21T09:52:32;92998.06;;;14.86;40.67
57248;BME280;55809;46.618;10.764;2023-03-21T09:55:17;93000.78;;;14.86;40.04
57248;BME280;55809;46.618;10.764;2023-03-21T09:57:49;93006.41;;;14.79;39.54
57248;BME280;55809;46.618;10.764;2023-03-21T10:00:29;93004.53;;;14.76;40.75
57248;BME280;55809;46.618;10.764;2023-03-21T10:03:03;93000.44;;;14.68;39.77
57248;BME280;55809;46.618;10.764;2023-03-21T10:05:33;93004.59;;;14.72;38.66
57248;BME280;55809;46.618;10.764;2023-03-21T10:08:10;92985.66;;;14.52;38.77
57248;BME280;55809;46.618;10.764;2023-03-21T10:10:44;92990.91;;;14.60;39.73
57248;BME280;55809;46.618;10.764;2023-03-21T10:13:16;92946.38;;;14.37;39.92
57248;BME280;55809;46.618;10.764;2023-03-21T10:15:55;92978.59;;;14.55;40.34
57248;BME280;55809;46.618;10.764;2023-03-21T10:18:28;92974.25;;;14.58;41.19
57248;BME280;55809;46.618;10.764;2023-03-21T10:20:57;92954.44;;;14.41;41.05
57248;BME280;55809;46.618;10.764;2023-03-21T10:23:27;92978.53;;;14.59;41.30
57248;BME280;55809;46.618;10.764;2023-03-21T10:25:58;92975.97;;;14.51;40.55
57248;BME280;55809;46.618;10.764;2023-03-21T10:28:30;92973.38;;;14.44;40.96
57248;BME280;55809;46.618;10.764;2023-03-21T10:31:03;92960.03;;;14.34;40.95
57248;BME280;55809;46.618;10.764;2023-03-21T10:33:36;92947.28;;;14.30;41.79
57248;BME280;55809;46.618;10.764;2023-03-21T10:36:07;92960.56;;;14.45;41.62
57248;BME280;55809;46.618;10.764;2023-03-21T10:38:39;92960.13;;;14.46;42.07
57248;BME280;55809;46.618;10.764;2023-03-21T10:41:11;92959.28;;;14.49;40.99
57248;BME280;55809;46.618;10.764;2023-03-21T10:43:41;92952.53;;;14.58;40.47
57248;BME280;55809;46.618;10.764;2023-03-21T10:46:17;92947.97;;;14.54;40.29
57248;BME280;55809;46.618;10.764;2023-03-21T10:48:50;92949.81;;;14.74;39.79
57248;BME280;55809;46.618;10.764;2023-03-21T10:51:21;92936.69;;;14.72;39.35
57248;BME280;55809;46.618;10.764;2023-03-21T10:53:53;92929.72;;;14.71;38.36
57248;BME280;55809;46.618;10.764;2023-03-21T10:56:25;92914.38;;;14.65;38.70
57248;BME280;55809;46.618;10.764;2023-03-21T10:58:55;92933.69;;;14.83;38.16
57248;BME280;55809;46.618;10.764;2023-03-21T11:01:34;92923.09;;;14.89;38.59
57248;BME280;55809;46.618;10.764;2023-03-21T11:04:06;92918.94;;;14.84;37.06
57248;BME280;55809;46.618;10.764;2023-03-21T11:06:38;92898.16;;;14.77;36.65
57248;BME280;55809;46.618;10.764;2023-03-21T11:09:08;92911.19;;;14.99;37.57
57248;BME280;55809;46.618;10.764;2023-03-21T11:11:42;92925.03;;;15.05;36.91
57248;BME280;55809;46.618;10.764;2023-03-21T11:14:25;92924.50;;;15.10;38.40
57248;BME280;55809;46.618;10.764;2023-03-21T11:16:56;92915.19;;;15.11;37.47
57248;BME280;55809;46.618;10.764;2023-03-21T11:19:29;92912.13;;;15.09;36.12
57248;BME280;55809;46.618;10.764;2023-03-21T11:22:12;92915.63;;;14.93;35.83
57248;BME280;55809;46.618;10.764;2023-03-21T11:24:41;92910.72;;;14.88;36.81
57248;BME280;55809;46.618;10.764;2023-03-21T11:27:14;92887.59;;;14.80;36.89
57248;BME280;55809;46.618;10.764;2023-03-21T11:29:45;92890.31;;;14.96;37.03
57248;BME280;55809;46.618;10.764;2023-03-21T11:32:23;92879.34;;;14.99;37.37
57248;BME280;55809;46.618;10.764;2023-03-21T11:34:56;92890.94;;;15.16;37.15
57248;BME280;55809;46.618;10.764;2023-03-21T11:37:37;92882.13;;;15.12;37.59
57248;BME280;55809;46.618;10.764;2023-03-21T11:40:19;92879.50;;;15.09;37.16
57248;BME280;55809;46.618;10.764;2023-03-21T11:42:48;92868.47;;;14.99;36.74
57248;BME280;55809;46.618;10.764;2023-03-21T11:45:20;92875.75;;;15.02;36.62
57248;BME280;55809;46.618;10.764;2023-03-21T11:48:09;92873.00;;;15.19;37.47
57248;BME280;55809;46.618;10.764;2023-03-21T11:50:41;92873.16;;;15.28;37.64
57248;BME280;55809;46.618;10.764;2023-03-21T11:53:21;92871.59;;;15.43;36.90
57248;BME280;55809;46.618;10.764;2023-03-21T11:56:04;92868.44;;;15.45;36.33
57248;BME280;55809;46.618;10.764;2023-03-21T11:58:42;92866.78;;;15.35;36.44
57248;BME280;55809;46.618;10.764;2023-03-21T12:01:19;92858.56;;;15.22;36.78
57248;BME280;55809;46.618;10.764;2023-03-21T12:04:02;92847.72;;;15.06;37.70
57248;BME280;55809;46.618;10.764;2023-03-21T12:06:35;92848.06;;;15.08;38.60
57248;BME280;55809;46.618;10.764;2023-03-21T12:09:22;92851.47;;;15.12;38.08
57248;BME280;55809;46.618;10.764;2023-03-21T12:11:59;92836.50;;;15.04;38.72
57248;BME280;55809;46.618;10.764;2023-03-21T12:14:36;92839.16;;;15.07;39.11
57248;BME280;55809;46.618;10.764;2023-03-21T12:17:12;92838.88;;;15.18;39.10
57248;BME280;55809;46.618;10.764;2023-03-21T12:19:58;92825.63;;;15.04;39.41
57248;BME280;55809;46.618;10.764;2023-03-21T12:22:38;92839.19;;;15.20;39.46
57248;BME280;55809;46.618;10.764;2023-03-21T12:25:12;92828.59;;;15.09;39.22
57248;BME280;55809;46.618;10.764;2023-03-21T12:27:49;92817.97;;;15.15;39.98
57248;BME280;55809;46.618;10.764;2023-03-21T12:30:30;92830.28;;;15.19;40.09
57248;BME280;55809;46.618;10.764;2023-03-21T12:33:10;92806.72;;;15.00;40.40
57248;BME280;55809;46.618;10.764;2023-03-21T12:35:53;92822.22;;;15.16;40.61
57248;BME280;55809;46.618;10.764;2023-03-21T12:38:29;92827.84;;;15.09;41.19
57248;BME280;55809;46.618;10.764;2023-03-21T12:41:14;92820.78;;;15.11;41.52
57248;BME280;55809;46.618;10.764;2023-03-21T12:43:47;92803.81;;;15.07;41.21
57248;BME280;55809;46.618;10.764;2023-03-21T12:46:20;92783.09;;;14.84;40.89
57248;BME280;55809;46.618;10.764;2023-03-21T12:48:51;92811.97;;;15.07;42.09
57248;BME280;55809;46.618;10.764;2023-03-21T12:51:26;92808.50;;;14.90;42.33
57248;BME280;55809;46.618;10.764;2023-03-21T12:54:06;92803.53;;;14.89;42.86
57248;BME280;55809;46.618;10.764;2023-03-21T12:56:37;92794.06;;;14.93;41.16
57248;BME280;55809;46.618;10.764;2023-03-21T12:59:15;92790.78;;;14.86;41.15
57248;BME280;55809;46.618;10.764;2023-03-21T13:01:47;92801.81;;;14.95;41.33
57248;BME280;55809;46.618;10.764;2023-03-21T13:07:17;92799.19;;;14.91;39.23
57248;BME280;55809;46.618;10.764;2023-03-21T13:09:45;92781.03;;;14.88;38.71
57248;BME280;55809;46.618;10.764;2023-03-21T13:12:23;92781.53;;;14.83;39.79
57248;BME280;55809;46.618;10.764;2023-03-21T13:15:13;92773.72;;;14.85;39.89
57248;BME280;55809;46.618;10.764;2023-03-21T13:17:49;92772.13;;;14.88;39.09
57248;BME280;55809;46.618;10.764;2023-03-21T13:20:23;92755.81;;;14.88;39.83
57248;BME280;55809;46.618;10.764;2023-03-21T13:22:53;92768.00;;;14.96;39.42
57248;BME280;55809;46.618;10.764;2023-03-21T13:25:22;92767.13;;;14.99;38.11
57248;BME280;55809;46.618;10.764;2023-03-21T13:27:52;92774.63;;;14.95;38.68
57248;BME280;55809;46.618;10.764;2023-03-21T13:30:22;92766.47;;;14.95;39.43